Sacramento, California
Current Conditions -  °F | °C
As of 10:53 AM on Friday 31 Oct 2014 (Local Time) from KSAC Reporting Station
Overcast Overcast  
Wind Chill: 17°   Ceiling: 3800
Heat Index: 17°   Visibility: 10mi
Dew Point: 13°   Wind: 5mph
Humidity: 78%   Direction: 180°S
Pressure: 29.88"   Gusts: NA
Location:  38.58°N, 121.49°W
Report Text: KSAC 311753Z 18004KT 10SM OVC038 17/13 A2988 RMK AO2 SLP117 60000 T01720133 10172 20156 53007
Loading
Personal Weather Stations






























Interactive Weather Map New forecast layout! Learn more

10-Day Weather Forecast

Advertisements
Track Severe Weather on mobile